金門航空站 - ATIS

METAR RCBS 130830Z 19009KT 9999 FEW015 31/26 Q1011 NOSIG RMK A2988(I)=

站台狀態:Offline
最後更新:2020-08-13 17:00:01